createdAt,value
2023-05-10T00:07:39.341Z,10.93
2023-05-10T00:17:41.373Z,10.39
2023-05-10T00:27:43.421Z,10.60
2023-05-10T00:37:46.844Z,11.04
2023-05-10T00:47:49.082Z,10.78
2023-05-10T00:57:51.288Z,10.95
2023-05-10T01:07:53.605Z,11.23
2023-05-10T01:17:56.867Z,11.21
2023-05-10T01:28:18.782Z,11.29
2023-05-10T01:38:47.123Z,11.05
2023-05-10T01:48:53.221Z,10.47
2023-05-10T01:58:57.131Z,10.58
2023-05-10T02:09:01.546Z,10.92
2023-05-10T02:19:04.200Z,9.81
2023-05-10T02:29:07.614Z,10.07
2023-05-10T02:39:13.556Z,10.39
2023-05-10T02:49:16.254Z,9.61
2023-05-10T02:59:18.281Z,9.98
2023-05-10T03:09:20.800Z,10.39
2023-05-10T03:19:29.140Z,10.60
2023-05-10T03:29:32.309Z,10.12
2023-05-10T03:39:34.636Z,10.46
2023-05-10T03:49:38.050Z,10.21
2023-05-10T03:59:40.313Z,10.02
2023-05-10T04:09:42.444Z,9.84
2023-05-10T04:19:44.621Z,10.03
2023-05-10T04:29:46.717Z,10.33
2023-05-10T04:39:48.737Z,10.47
2023-05-10T04:49:51.214Z,10.38
2023-05-10T04:59:54.290Z,10.37
2023-05-10T05:09:56.656Z,10.50
2023-05-10T05:19:58.687Z,9.55
2023-05-10T05:30:00.821Z,10.24
2023-05-10T05:40:02.916Z,10.25
2023-05-10T05:50:05.761Z,10.73
2023-05-10T06:00:08.391Z,10.39
2023-05-10T06:10:16.274Z,10.65
2023-05-10T06:20:18.395Z,10.80
2023-05-10T06:30:21.085Z,10.83
2023-05-10T06:40:23.171Z,10.78
2023-05-10T06:50:25.265Z,10.89
2023-05-10T07:00:28.069Z,10.74
2023-05-10T07:10:30.789Z,11.59
2023-05-10T07:20:33.403Z,12.17
2023-05-10T07:30:35.722Z,11.06
2023-05-10T07:40:38.070Z,11.88
2023-05-10T07:50:40.089Z,11.20
2023-05-10T08:00:42.150Z,10.95
2023-05-10T08:10:44.315Z,12.13
2023-05-10T08:20:46.403Z,11.75
2023-05-10T08:30:48.506Z,12.20
2023-05-10T08:40:51.754Z,11.29
2023-05-10T08:50:58.336Z,11.63
2023-05-10T09:01:00.680Z,10.95
2023-05-10T09:11:03.813Z,11.50
2023-05-10T09:21:06.555Z,11.88
2023-05-10T09:31:08.674Z,12.15
2023-05-10T09:41:21.333Z,12.30
2023-05-10T09:51:25.247Z,13.08
2023-05-10T10:01:27.444Z,13.22
2023-05-10T10:11:29.850Z,12.37
2023-05-10T10:21:32.550Z,13.43
2023-05-10T10:31:57.060Z,13.17
2023-05-10T10:41:59.965Z,12.95
2023-05-10T10:52:15.636Z,13.28
2023-05-10T11:02:46.856Z,13.05
2023-05-10T11:13:11.160Z,12.83
2023-05-10T11:23:16.497Z,13.06
2023-05-10T11:33:20.582Z,12.81
2023-05-10T11:43:24.643Z,13.59
2023-05-10T11:53:28.096Z,12.95
2023-05-10T12:03:30.753Z,13.46
2023-05-10T12:13:32.897Z,14.17
2023-05-10T12:23:34.938Z,13.63
2023-05-10T12:33:39.765Z,13.16
2023-05-10T12:43:42.192Z,13.57
2023-05-10T12:53:49.765Z,14.10
2023-05-10T13:03:52.400Z,13.42
2023-05-10T13:13:56.531Z,13.67
2023-05-10T13:23:58.965Z,14.04
2023-05-10T13:34:01.153Z,13.51
2023-05-10T13:44:03.355Z,14.04
2023-05-10T13:54:05.980Z,14.43
2023-05-10T14:04:11.188Z,14.49
2023-05-10T14:14:14.248Z,14.25
2023-05-10T14:24:16.334Z,15.73
2023-05-10T14:34:18.604Z,15.08
2023-05-10T14:44:20.980Z,15.50
2023-05-10T14:54:22.999Z,14.85
2023-05-10T15:04:27.088Z,14.95
2023-05-10T15:14:31.460Z,16.00
2023-05-10T15:24:33.545Z,15.66
2023-05-10T15:34:37.156Z,15.28
2023-05-10T15:44:39.833Z,14.19
2023-05-10T15:54:42.098Z,14.91
2023-05-10T16:04:44.591Z,15.34
2023-05-10T16:14:48.002Z,14.47
2023-05-10T16:24:53.496Z,14.92
2023-05-10T16:34:55.571Z,14.74
2023-05-10T16:44:57.843Z,14.05
2023-05-10T16:54:59.906Z,13.87
2023-05-10T17:05:01.984Z,14.05
2023-05-10T17:15:05.062Z,14.01
2023-05-10T17:25:07.678Z,13.65
2023-05-10T17:35:10.239Z,13.08
2023-05-10T17:45:15.619Z,11.93
2023-05-10T17:55:18.241Z,11.57
2023-05-10T18:05:21.399Z,11.27
2023-05-10T18:15:24.598Z,11.73
2023-05-10T18:25:26.803Z,12.14
2023-05-10T18:35:28.884Z,12.15
2023-05-10T18:45:31.026Z,12.16
2023-05-10T18:55:33.345Z,12.09
2023-05-10T19:05:35.472Z,11.90
2023-05-10T19:15:39.809Z,12.00
2023-05-10T19:25:42.949Z,11.51
2023-05-10T19:35:45.510Z,11.94
2023-05-10T19:45:47.561Z,11.44
2023-05-10T19:55:49.696Z,11.44
2023-05-10T20:05:52.099Z,11.77
2023-05-10T20:15:58.100Z,11.59
2023-05-10T20:26:00.166Z,11.76
2023-05-10T20:36:02.200Z,11.20
2023-05-10T20:46:05.437Z,11.57
2023-05-10T20:56:07.721Z,11.26
2023-05-10T21:06:09.772Z,11.16
2023-05-10T21:16:12.157Z,11.52
2023-05-10T21:26:14.491Z,11.03
2023-05-10T21:36:16.626Z,10.89
2023-05-10T21:46:19.439Z,11.37
2023-05-10T21:56:21.643Z,11.24
2023-05-10T22:06:23.730Z,11.19
2023-05-10T22:16:25.825Z,11.40
2023-05-10T22:26:27.916Z,11.30
2023-05-10T22:36:30.632Z,10.82
2023-05-10T22:46:32.946Z,10.67
2023-05-10T22:56:35.050Z,10.67
2023-05-10T23:06:37.175Z,11.16
2023-05-10T23:16:39.301Z,11.13
2023-05-10T23:26:43.398Z,11.13
2023-05-10T23:36:45.407Z,11.02
2023-05-10T23:46:47.426Z,11.04
2023-05-10T23:56:51.399Z,10.71
